Time;durP1;ratioP1;P1;durP2;ratioP2;P2;SDS_P1;SDS_P2;PMS_P1;PMS_P2;Temp;Humidity;BMP_temperature;BMP_pressure;BME280_temperature;BME280_humidity;BME280_pressure;Samples;Min_cycle;Max_cycle;Signal;HPM_P1;HPM_P2
2022/12/03 00:02:18;;;;;;;106.70;47.47;;;;;;;0.38;99.30;102252.09;5053651;28;20095;-47
2022/12/03 00:04:43;;;;;;;104.03;48.42;;;;;;;0.40;98.45;102249.72;5053513;28;20025;-47
2022/12/03 00:07:08;;;;;;;108.78;48.33;;;;;;;0.40;98.73;102254.78;5052756;28;20033;-48
2022/12/03 00:09:34;;;;;;;102.57;48.83;;;;;;;0.40;99.20;102258.22;5053206;28;20013;-47
2022/12/03 00:11:59;;;;;;;103.75;47.55;;;;;;;0.39;99.06;102252.97;5053802;28;20028;-47
2022/12/03 00:14:24;;;;;;;104.15;47.67;;;;;;;0.39;98.12;102248.81;5052774;28;20029;-48
2022/12/03 00:16:49;;;;;;;100.78;46.72;;;;;;;0.40;98.70;102247.16;5053243;28;20032;-47
2022/12/03 00:19:15;;;;;;;105.43;48.25;;;;;;;0.40;98.46;102249.72;5053573;28;20048;-48
2022/12/03 00:21:40;;;;;;;109.25;48.78;;;;;;;0.40;99.07;102243.00;5052280;28;20062;-48
2022/12/03 00:24:05;;;;;;;108.70;50.03;;;;;;;0.42;99.23;102240.59;5053322;28;20385;-48
2022/12/03 00:26:31;;;;;;;107.60;48.60;;;;;;;0.41;99.15;102239.69;5053098;28;20083;-44
2022/12/03 00:28:56;;;;;;;103.80;48.05;;;;;;;0.42;98.81;102238.06;5052501;28;20025;-48
2022/12/03 00:31:22;;;;;;;109.85;50.45;;;;;;;0.42;98.78;102233.00;5053329;28;20033;-48
2022/12/03 00:33:49;;;;;;;107.30;48.05;;;;;;;0.41;98.93;102233.75;5053012;28;20104;-47
2022/12/03 00:36:14;;;;;;;110.55;50.15;;;;;;;0.41;98.89;102232.09;5051591;28;20033;-48
2022/12/03 00:38:39;;;;;;;114.53;48.72;;;;;;;0.42;99.02;102222.84;5052754;28;20591;-46
2022/12/03 00:41:04;;;;;;;112.65;49.55;;;;;;;0.41;99.99;102231.22;5052906;28;20040;-46
2022/12/03 00:43:30;;;;;;;115.10;51.08;;;;;;;0.42;99.88;102230.47;5052934;28;20440;-46
2022/12/03 00:45:55;;;;;;;122.03;52.28;;;;;;;0.41;99.02;102237.16;5052953;28;20036;-45
2022/12/03 00:48:20;;;;;;;118.28;52.80;;;;;;;0.42;99.88;102225.38;5052280;28;20438;-48
2022/12/03 00:50:46;;;;;;;122.63;53.22;;;;;;;0.42;100.00;102225.38;5052656;28;20032;-49
2022/12/03 00:53:11;;;;;;;117.50;50.95;;;;;;;0.43;98.95;102224.66;5052830;28;20017;-48
2022/12/03 00:55:36;;;;;;;127.75;54.17;;;;;;;0.42;98.77;102230.47;5051665;28;20043;-47
2022/12/03 00:58:01;;;;;;;124.53;53.45;;;;;;;0.44;99.68;102226.41;5053016;28;20029;-47
2022/12/03 01:00:27;;;;;;;118.53;51.78;;;;;;;0.43;99.49;102224.66;5052785;28;20538;-48
2022/12/03 01:02:53;;;;;;;119.90;53.00;;;;;;;0.44;99.75;102224.78;5051497;28;20036;-47
2022/12/03 01:05:19;;;;;;;114.78;52.42;;;;;;;0.43;100.00;102228.06;5052843;28;20025;-48
2022/12/03 01:07:45;;;;;;;122.90;52.88;;;;;;;0.43;99.60;102224.66;5052453;28;20029;-49
2022/12/03 01:10:12;;;;;;;122.35;53.15;;;;;;;0.44;100.00;102227.31;5051864;28;20033;-47
2022/12/03 01:12:37;;;;;;;116.07;52.53;;;;;;;0.44;100.00;102224.78;5052325;28;20565;-47
2022/12/03 01:15:03;;;;;;;128.85;56.00;;;;;;;0.44;100.00;102223.88;5052732;28;20111;-48
2022/12/03 01:17:28;;;;;;;116.22;54.47;;;;;;;0.44;99.89;102223.88;5051919;28;20021;-48
2022/12/03 01:19:54;;;;;;;131.98;55.58;;;;;;;0.46;100.00;102218.19;5052422;28;20027;-48
2022/12/03 01:22:19;;;;;;;129.65;54.63;;;;;;;0.45;100.00;102225.66;5052665;28;20104;-49
2022/12/03 01:24:44;;;;;;;126.05;55.00;;;;;;;0.45;100.00;102220.59;5051385;28;20025;-47
2022/12/03 01:27:09;;;;;;;127.20;55.90;;;;;;;0.45;99.83;102221.50;5052508;28;20104;-46
2022/12/03 01:29:35;;;;;;;118.55;54.83;;;;;;;0.46;99.79;102215.66;5052343;28;20435;-48
2022/12/03 01:32:18;;;;;;;127.25;56.28;;;;;;;0.47;100.00;102224.16;5051947;28;20025;-48
2022/12/03 01:34:48;;;;;;;131.05;56.05;;;;;;;0.46;100.00;102223.25;5052084;28;20431;-47
2022/12/03 01:37:14;;;;;;;128.45;56.40;;;;;;;0.46;100.00;102222.38;5052444;28;20079;-47
2022/12/03 01:39:40;;;;;;;137.20;58.25;;;;;;;0.46;99.14;102218.19;5051499;28;20048;-48
2022/12/03 01:42:07;;;;;;;129.13;55.80;;;;;;;0.46;99.74;102223.25;5052343;28;20029;-48
2022/12/03 01:44:35;;;;;;;136.77;57.63;;;;;;;0.47;100.00;102216.56;5051383;28;20108;-48
2022/12/03 01:47:03;;;;;;;130.18;56.78;;;;;;;0.49;100.00;102215.03;5053217;28;20043;-48
2022/12/03 01:49:36;;;;;;;133.70;57.40;;;;;;;0.46;100.00;102217.31;5056244;28;20543;-47
2022/12/03 01:52:01;;;;;;;131.68;56.40;;;;;;;0.46;99.35;102212.22;5055673;28;20056;-47
2022/12/03 01:54:35;;;;;;;139.85;60.35;;;;;;;0.46;100.00;102212.22;5056365;28;20021;-48
2022/12/03 01:57:00;;;;;;;144.65;60.97;;;;;;;0.44;100.00;102207.03;5056240;28;20044;-48
2022/12/03 01:59:36;;;;;;;138.68;60.03;;;;;;;0.46;100.00;102217.31;5055540;28;20025;-48
2022/12/03 02:02:22;;;;;;;139.02;59.55;;;;;;;0.48;99.29;102214.16;5055738;28;20052;-47
2022/12/03 02:04:48;;;;;;;140.15;60.70;;;;;;;0.44;99.72;102207.03;5055899;28;20108;-47
2022/12/03 02:07:28;;;;;;;141.25;58.45;;;;;;;0.46;99.70;102207.16;5055439;28;20100;-47
2022/12/03 02:09:56;;;;;;;142.68;59.45;;;;;;;0.45;99.61;102208.81;5055636;28;20432;-47
2022/12/03 02:12:25;;;;;;;;;;;;;;;0.55;100.00;102205.47;5056293;28;20120;-48
2022/12/03 02:14:52;;;;;;;148.70;60.97;;;;;;;0.48;99.71;102203.13;5054918;28;20207;-48
2022/12/03 02:17:17;;;;;;;145.25;60.92;;;;;;;0.47;99.53;102208.94;5056144;28;20025;-49
2022/12/03 02:19:42;;;;;;;150.93;61.83;;;;;;;0.45;99.30;102200.28;5054867;28;20024;-46
2022/12/03 02:22:36;;;;;;;139.73;57.83;;;;;;;0.49;100.00;102207.44;5055869;28;20025;-46
2022/12/03 02:25:42;;;;;;;141.30;59.78;;;;;;;0.45;99.41;102206.28;5055556;28;20037;-47
2022/12/03 02:28:08;;;;;;;141.77;61.43;;;;;;;0.46;99.72;102207.16;5032785;28;20044;-46
2022/12/03 02:30:35;;;;;;;148.88;59.70;;;;;;;0.45;99.28;102205.38;5033133;28;20280;-48
2022/12/03 02:33:01;;;;;;;140.52;59.10;;;;;;;0.44;100.00;102206.13;5043723;28;20037;-46
2022/12/03 02:35:31;;;;;;;139.23;59.97;;;;;;;0.44;99.43;102194.34;5054464;28;20028;-47
2022/12/03 02:38:18;;;;;;;142.50;58.97;;;;;;;0.47;99.48;102199.69;5055735;28;20155;-49
2022/12/03 02:40:45;;;;;;;152.60;63.97;;;;;;;0.44;99.54;102189.28;5054596;28;20060;-48
2022/12/03 02:43:13;;;;;;;136.77;58.67;;;;;;;0.45;99.36;102190.16;5055569;28;20345;-47
2022/12/03 02:45:42;;;;;;;142.73;60.58;;;;;;;0.44;99.16;102190.91;5055034;28;20036;-48
2022/12/03 02:48:15;;;;;;;143.80;60.35;;;;;;;0.44;99.99;102198.50;5054456;28;20645;-48
2022/12/03 02:50:44;;;;;;;143.07;58.78;;;;;;;0.44;99.04;102191.81;5055027;28;20025;-46
2022/12/03 02:53:16;;;;;;;137.75;59.83;;;;;;;0.44;100.00;102183.28;5055257;28;20056;-48
2022/12/03 02:55:42;;;;;;;143.27;59.78;;;;;;;0.44;99.71;102188.34;5053955;28;20108;-48
2022/12/03 02:58:09;;;;;;;143.25;61.70;;;;;;;0.43;99.93;102195.09;5054368;28;20035;-48
2022/12/03 03:00:36;;;;;;;146.52;61.58;;;;;;;0.42;99.89;102185.69;5054768;28;20108;-45
2022/12/03 03:03:03;;;;;;;150.27;62.05;;;;;;;0.43;100.00;102184.06;5053960;28;20060;-48
2022/12/03 03:05:29;;;;;;;144.05;60.08;;;;;;;0.43;99.44;102186.59;5055058;28;20017;-48
2022/12/03 03:07:57;;;;;;;143.27;59.38;;;;;;;0.43;99.86;102191.66;5054509;28;20078;-46
2022/12/03 03:10:23;;;;;;;139.88;60.47;;;;;;;0.43;99.86;102184.94;5054061;28;20029;-47
2022/12/03 03:12:51;;;;;;;149.43;61.92;;;;;;;0.42;100.00;102189.88;5054418;28;20025;-47
2022/12/03 03:15:16;;;;;;;146.27;62.03;;;;;;;0.41;100.00;102178.81;5054652;28;20055;-45
2022/12/03 03:17:42;;;;;;;147.07;60.83;;;;;;;0.42;100.00;102174.66;5053360;28;20017;-49
2022/12/03 03:20:09;;;;;;;142.55;60.28;;;;;;;0.42;100.00;102179.75;5054538;28;20032;-47
2022/12/03 03:22:37;;;;;;;137.23;60.22;;;;;;;0.42;100.00;102174.66;5054316;28;20021;-49
2022/12/03 03:25:04;;;;;;;145.73;62.45;;;;;;;0.43;100.00;102171.38;5053652;28;20022;-48
2022/12/03 03:27:30;;;;;;;144.00;61.03;;;;;;;0.44;100.00;102173.13;5054431;28;20388;-47
2022/12/03 03:29:57;;;;;;;149.07;62.45;;;;;;;0.43;100.00;102172.25;5053983;28;20037;-48
2022/12/03 03:32:23;;;;;;;143.73;62.45;;;;;;;0.44;100.00;102174.06;5054667;28;20021;-47
2022/12/03 03:34:48;;;;;;;140.60;61.03;;;;;;;0.44;100.00;102168.97;5054143;28;20427;-48
2022/12/03 03:37:13;;;;;;;154.15;64.82;;;;;;;0.43;100.00;102167.19;5053889;28;20039;-47
2022/12/03 03:39:39;;;;;;;148.70;63.65;;;;;;;0.44;100.00;102168.06;5053930;28;20039;-48
2022/12/03 03:42:04;;;;;;;153.68;64.68;;;;;;;0.43;100.00;102167.19;5054196;28;20021;-48
2022/12/03 03:44:30;;;;;;;147.75;64.93;;;;;;;0.43;99.93;102167.19;5053548;28;20124;-48
2022/12/03 03:46:56;;;;;;;148.52;63.17;;;;;;;0.42;99.99;102161.97;5054099;28;20025;-49
2022/12/03 03:49:22;;;;;;;146.68;62.08;;;;;;;0.42;100.00;102154.38;5054054;28;20044;-48
2022/12/03 03:51:47;;;;;;;152.38;63.85;;;;;;;0.43;100.00;102156.16;5053004;28;20029;-48
2022/12/03 03:54:13;;;;;;;151.80;63.22;;;;;;;0.42;99.98;102159.44;5053927;28;20025;-48
2022/12/03 03:56:39;;;;;;;147.43;62.65;;;;;;;0.42;100.00;102160.31;5053484;28;20086;-48
2022/12/03 03:59:04;;;;;;;157.75;64.85;;;;;;;0.42;100.00;102159.44;5053613;28;20028;-49
2022/12/03 04:01:30;;;;;;;151.85;65.43;;;;;;;0.42;100.00;102164.53;5053776;28;20124;-48
2022/12/03 04:03:58;;;;;;;140.60;61.90;;;;;;;0.39;100.00;102154.97;5053735;28;20095;-47
2022/12/03 04:06:24;;;;;;;148.27;63.45;;;;;;;0.41;100.00;102160.19;5053113;28;20112;-48
2022/12/03 04:08:49;;;;;;;141.55;62.00;;;;;;;0.41;100.00;102156.00;5053370;28;20025;-47
2022/12/03 04:13:59;;;;;;;145.15;61.17;;;;;;;0.40;100.00;102151.69;5053015;28;20439;-48
2022/12/03 04:16:24;;;;;;;145.95;61.78;;;;;;;0.42;100.00;102155.25;5053694;28;20033;-48
2022/12/03 04:18:49;;;;;;;144.50;63.40;;;;;;;0.42;100.00;102149.31;5053258;28;20138;-48
2022/12/03 04:24:05;;;;;;;151.30;63.55;;;;;;;0.45;100.00;102147.03;5054005;28;20035;-48
2022/12/03 04:29:14;;;;;;;145.82;61.75;;;;;;;0.41;100.00;102153.47;5053605;28;20115;-47
2022/12/03 04:37:08;;;;;;;156.30;66.70;;;;;;;0.42;100.00;102155.25;5053140;28;20103;-48
2022/12/03 04:39:33;;;;;;;155.35;65.95;;;;;;;0.44;100.00;102145.25;5052917;28;20411;-49
2022/12/03 04:41:59;;;;;;;162.65;67.18;;;;;;;0.43;100.00;102148.56;5052316;28;20061;-47
2022/12/03 04:44:35;;;;;;;157.50;66.10;;;;;;;0.41;100.00;102148.38;5053000;28;20021;-48
2022/12/03 04:47:02;;;;;;;160.18;65.75;;;;;;;0.43;100.00;102151.09;5053266;28;20082;-44
2022/12/03 04:49:27;;;;;;;159.10;67.50;;;;;;;0.42;100.00;102144.22;5052382;28;20056;-46
2022/12/03 04:51:53;;;;;;;163.70;68.53;;;;;;;0.44;100.00;102145.25;5052724;28;20067;-46
2022/12/03 04:54:18;;;;;;;160.35;67.00;;;;;;;0.44;100.00;102147.78;5052354;28;20060;-48
2022/12/03 04:56:44;;;;;;;155.70;67.95;;;;;;;0.41;100.00;102138.25;5052325;28;20361;-49
2022/12/03 04:59:09;;;;;;;157.23;64.32;;;;;;;0.41;100.00;102147.50;5052811;28;20025;-48
2022/12/03 05:01:35;;;;;;;166.38;70.35;;;;;;;0.41;100.00;102134.81;5051569;28;20041;-49
2022/12/03 05:04:00;;;;;;;157.25;67.38;;;;;;;0.40;100.00;102139.03;5052703;28;20044;-49
2022/12/03 05:06:25;;;;;;;161.27;68.70;;;;;;;0.40;100.00;102131.41;5052899;28;20051;-47
2022/12/03 05:08:50;;;;;;;168.40;68.85;;;;;;;0.40;100.00;102127.97;5051579;28;20040;-47
2022/12/03 05:11:16;;;;;;;160.82;67.57;;;;;;;0.39;100.00;102134.69;5052802;28;20021;-48
2022/12/03 05:13:41;;;;;;;163.90;68.80;;;;;;;0.40;100.00;102135.56;5052404;28;20039;-47
2022/12/03 05:16:06;;;;;;;166.75;68.72;;;;;;;0.43;100.00;102128.25;5052017;28;20554;-48
2022/12/03 05:18:32;;;;;;;165.68;69.25;;;;;;;0.39;100.00;102133.78;5052246;28;20032;-47
2022/12/03 05:20:57;;;;;;;174.23;71.40;;;;;;;0.39;100.00;102131.25;5053997;28;20066;-47
2022/12/03 05:23:22;;;;;;;170.73;71.18;;;;;;;0.38;100.00;102137.09;5058624;28;20021;-48
2022/12/03 05:25:48;;;;;;;175.25;71.47;;;;;;;0.37;100.00;102135.31;5058981;28;20020;-47
2022/12/03 05:28:13;;;;;;;164.68;70.07;;;;;;;0.36;100.00;102129.31;5059141;28;20032;-48
2022/12/03 05:30:39;;;;;;;174.77;70.03;;;;;;;0.36;100.00;102128.44;5057955;28;20032;-49
2022/12/03 05:33:04;;;;;;;175.35;72.40;;;;;;;0.35;100.00;102125.03;5059306;28;20112;-49
2022/12/03 05:35:29;;;;;;;188.88;75.00;;;;;;;0.35;100.00;102129.19;5059223;28;20167;-47
2022/12/03 05:37:55;;;;;;;172.00;73.03;;;;;;;0.36;100.00;102125.91;5058276;28;20032;-48
2022/12/03 05:40:20;;;;;;;183.57;71.35;;;;;;;0.33;100.00;102122.31;5059361;28;20021;-49
2022/12/03 05:42:59;;;;;;;177.60;72.78;;;;;;;0.33;100.00;102123.97;5058689;28;20067;-48
2022/12/03 05:45:31;;;;;;;180.90;73.53;;;;;;;0.32;100.00;102127.25;5058573;28;20106;-48
2022/12/03 05:47:58;;;;;;;190.20;74.75;;;;;;;0.32;100.00;102124.72;5059211;28;20028;-46
2022/12/03 05:50:26;;;;;;;181.00;74.28;;;;;;;0.33;100.00;102119.78;5058960;28;20025;-48
2022/12/03 05:52:51;;;;;;;187.57;73.43;;;;;;;0.32;100.00;102118.03;5057933;28;20037;-48
2022/12/03 05:55:18;;;;;;;173.45;72.72;;;;;;;0.34;100.00;102118.16;5059040;28;20021;-48
2022/12/03 05:57:43;;;;;;;174.63;71.40;;;;;;;0.31;100.00;102111.16;5057722;28;20465;-45
2022/12/03 06:00:14;;;;;;;184.35;72.85;;;;;;;0.31;100.00;102120.41;5059194;28;20036;-47
2022/12/03 06:02:39;;;;;;;172.45;70.28;;;;;;;0.33;100.00;102119.78;5058660;28;20045;-47
2022/12/03 06:05:06;;;;;;;179.45;73.05;;;;;;;0.32;100.00;102118.03;5058277;28;20047;-49
2022/12/03 06:07:31;;;;;;;170.98;70.03;;;;;;;0.32;100.00;102114.59;5058844;28;20040;-44
2022/12/03 06:09:56;;;;;;;171.60;70.38;;;;;;;0.32;100.00;102114.59;5058826;28;20025;-48
2022/12/03 06:12:36;;;;;;;174.55;70.80;;;;;;;0.32;100.00;102118.03;5035083;28;20084;-49
2022/12/03 06:15:02;;;;;;;183.85;71.20;;;;;;;0.31;100.00;102113.69;5058940;28;20052;-48
2022/12/03 06:17:28;;;;;;;176.57;71.35;;;;;;;0.29;100.00;102117.72;5058728;28;20120;-48
2022/12/03 06:19:53;;;;;;;170.60;70.43;;;;;;;0.29;100.00;102112.66;5057736;28;20147;-46
2022/12/03 06:22:19;;;;;;;180.98;70.57;;;;;;;0.28;100.00;102115.94;5058698;28;20032;-47
2022/12/03 06:24:44;;;;;;;180.35;74.47;;;;;;;0.29;100.00;102111.78;5058256;28;20507;-45
2022/12/03 06:27:10;;;;;;;186.75;72.15;;;;;;;0.28;100.00;102115.94;5058077;28;20025;-47
2022/12/03 06:29:35;;;;;;;178.02;69.40;;;;;;;0.30;100.00;102108.50;5058592;28;20032;-46
2022/12/03 06:32:03;;;;;;;187.48;74.25;;;;;;;0.27;100.00;102109.13;5058506;28;20028;-45
2022/12/03 06:34:28;;;;;;;193.77;76.13;;;;;;;0.27;100.00;102108.19;5053788;28;20025;-46
2022/12/03 06:36:53;;;;;;;196.13;74.60;;;;;;;0.29;100.00;102112.66;5055010;28;20029;-45
2022/12/03 06:39:18;;;;;;;182.35;73.85;;;;;;;0.29;100.00;102111.78;5055369;28;20071;-47
2022/12/03 06:41:44;;;;;;;190.13;77.07;;;;;;;0.24;100.00;102108.81;5054433;28;20017;-47
2022/12/03 06:44:09;;;;;;;192.57;75.28;;;;;;;0.27;100.00;102110.75;5055489;28;20036;-47
2022/12/03 06:46:34;;;;;;;187.30;73.93;;;;;;;0.28;100.00;102112.53;5055114;28;20086;-48
2022/12/03 06:49:00;;;;;;;184.90;74.93;;;;;;;0.27;100.00;102114.19;5054547;28;20025;-47
2022/12/03 06:51:25;;;;;;;183.95;71.63;;;;;;;0.27;100.00;102108.19;5055283;28;20025;-49
2022/12/03 06:53:50;;;;;;;188.30;72.57;;;;;;;0.26;100.00;102102.25;5054621;28;20267;-48
2022/12/03 06:56:15;;;;;;;183.80;71.78;;;;;;;0.26;100.00;102112.41;5054375;28;20094;-48
2022/12/03 06:58:41;;;;;;;184.13;72.07;;;;;;;0.24;100.00;102113.88;5054769;28;20515;-48
2022/12/03 07:01:06;;;;;;;185.43;73.82;;;;;;;0.25;100.00;102104.66;5053889;28;20052;-47
2022/12/03 07:03:31;;;;;;;183.85;71.03;;;;;;;0.27;100.00;102111.66;5054799;28;20037;-45
2022/12/03 07:05:57;;;;;;;187.93;72.82;;;;;;;0.27;100.00;102101.50;5054800;28;20503;-47
2022/12/03 07:08:22;;;;;;;191.80;73.93;;;;;;;0.26;100.00;102107.31;5053987;28;20072;-48
2022/12/03 07:10:47;;;;;;;178.10;72.32;;;;;;;0.26;100.00;102106.41;5054750;28;20066;-49
2022/12/03 07:13:12;;;;;;;180.00;69.53;;;;;;;0.26;100.00;102107.31;5054654;28;20029;-49
2022/12/03 07:15:38;;;;;;;191.60;73.38;;;;;;;0.28;100.00;102105.81;5053589;28;20480;-46
2022/12/03 07:18:03;;;;;;;184.77;70.47;;;;;;;0.26;100.00;102107.31;5054919;28;20021;-46
2022/12/03 07:20:28;;;;;;;166.43;67.32;;;;;;;0.25;100.00;102110.59;5054752;28;20377;-47
2022/12/03 07:22:54;;;;;;;182.73;69.10;;;;;;;0.28;100.00;102108.34;5053456;28;20021;-47
2022/12/03 07:25:19;;;;;;;175.98;67.90;;;;;;;0.27;100.00;102101.50;5054649;28;20036;-47
2022/12/03 07:27:44;;;;;;;174.80;67.18;;;;;;;0.27;100.00;102109.13;5054213;28;20461;-48
2022/12/03 07:30:13;;;;;;;174.65;67.75;;;;;;;0.28;100.00;102104.91;5053527;28;20072;-46
2022/12/03 07:32:38;;;;;;;168.55;68.45;;;;;;;0.28;100.00;102100.72;5054086;28;20032;-48
2022/12/03 07:35:06;;;;;;;169.73;66.72;;;;;;;0.29;100.00;102106.72;5054252;28;20025;-49
2022/12/03 07:37:31;;;;;;;;;;;;;;;0.41;100.00;102109.47;5053590;28;20048;-44
2022/12/03 07:39:56;;;;;;;179.50;69.10;;;;;;;0.30;100.00;102101.78;5054375;28;19947;-48
2022/12/03 07:42:22;;;;;;;174.48;67.45;;;;;;;0.30;100.00;102106.84;5054357;28;20638;-47
2022/12/03 07:44:47;;;;;;;178.15;66.45;;;;;;;0.29;100.00;102102.50;5052634;28;20106;-47
2022/12/03 07:47:12;;;;;;;158.45;63.10;;;;;;;0.30;100.00;102111.91;5054146;28;20028;-47
2022/12/03 07:49:37;;;;;;;167.77;66.82;;;;;;;0.31;100.00;102106.09;5053824;28;20147;-48
2022/12/03 07:52:03;;;;;;;168.15;66.47;;;;;;;0.32;100.00;102112.97;5053314;28;20025;-47
2022/12/03 07:54:28;;;;;;;163.02;67.30;;;;;;;0.32;100.00;102112.97;5053949;28;20447;-46
2022/12/03 07:56:53;;;;;;;165.02;65.20;;;;;;;0.31;100.00;102105.19;5053690;28;20029;-48
2022/12/03 07:59:19;;;;;;;163.20;64.70;;;;;;;0.32;100.00;102107.88;5053177;28;20017;-49
2022/12/03 08:01:44;;;;;;;165.40;64.75;;;;;;;0.35;100.00;102114.88;5053229;28;20049;-47
2022/12/03 08:04:11;;;;;;;168.18;65.45;;;;;;;0.37;100.00;102118.44;5053680;28;20495;-48
2022/12/03 08:06:37;;;;;;;154.23;61.43;;;;;;;0.36;100.00;102113.22;5053069;28;20037;-48
2022/12/03 08:09:03;;;;;;;164.82;60.95;;;;;;;0.40;100.00;102112.75;5053756;28;20033;-49
2022/12/03 08:11:28;;;;;;;159.43;61.40;;;;;;;0.39;100.00;102110.97;5052787;28;20483;-47
2022/12/03 08:13:56;;;;;;;167.20;62.63;;;;;;;0.40;100.00;102113.66;5053264;28;20033;-47
2022/12/03 08:16:21;;;;;;;170.10;63.72;;;;;;;0.43;100.00;102116.47;5053553;28;20036;-48
2022/12/03 08:18:48;;;;;;;163.45;60.88;;;;;;;0.42;100.00;102113.78;5052457;28;20036;-47
2022/12/03 08:21:19;;;;;;;174.43;63.88;;;;;;;0.43;100.00;102120.66;5053487;28;20079;-46
2022/12/03 08:23:44;;;;;;;164.00;63.67;;;;;;;0.43;100.00;102125.72;5053251;28;20067;-48
2022/12/03 08:26:22;;;;;;;173.85;64.43;;;;;;;0.44;100.00;102125.84;5052674;28;20025;-48
2022/12/03 08:28:48;;;;;;;178.85;66.65;;;;;;;0.40;100.00;102115.28;5052824;28;20155;-48
2022/12/03 08:31:24;;;;;;;171.23;65.03;;;;;;;0.43;100.00;102115.59;5053394;28;20057;-48
2022/12/03 08:33:52;;;;;;;162.73;65.25;;;;;;;0.45;100.00;102114.06;5052161;28;20039;-46
2022/12/03 08:36:23;;;;;;;172.63;65.07;;;;;;;0.47;100.00;102120.19;5053311;28;20029;-47
2022/12/03 08:38:55;;;;;;;177.00;66.85;;;;;;;0.46;100.00;102121.81;5052794;28;20423;-48
2022/12/03 08:44:28;;;;;;;178.48;66.03;;;;;;;0.51;100.00;102122.22;5053598;28;20545;-47
2022/12/03 08:47:01;;;;;;;174.40;61.72;;;;;;;0.48;100.00;102119.44;5052062;28;20033;-48
2022/12/03 08:49:27;;;;;;;181.93;63.58;;;;;;;0.48;100.00;102116.91;5053121;28;20017;-48
2022/12/03 08:51:59;;;;;;;175.00;62.33;;;;;;;0.48;100.00;102114.34;5052496;28;20029;-48
2022/12/03 08:54:25;;;;;;;171.45;60.83;;;;;;;0.48;100.00;102115.22;5052035;28;20499;-46
2022/12/03 08:56:51;;;;;;;182.10;65.20;;;;;;;0.52;100.00;102110.44;5051808;28;20480;-46
2022/12/03 08:59:29;;;;;;;177.95;63.30;;;;;;;0.57;100.00;102117.72;5052779;28;20033;-48
2022/12/03 09:01:55;;;;;;;183.38;64.45;;;;;;;0.57;100.00;102112.66;5051559;28;20548;-48
2022/12/03 09:04:27;;;;;;;167.05;62.08;;;;;;;0.58;99.53;102119.50;5052724;28;20017;-48
2022/12/03 09:06:54;;;;;;;181.20;62.97;;;;;;;0.62;100.00;102111.41;5052264;28;20079;-45
2022/12/03 09:09:20;;;;;;;166.38;61.70;;;;;;;0.61;98.85;102114.69;5051782;28;20070;-48
2022/12/03 09:11:46;;;;;;;174.00;63.40;;;;;;;0.61;99.24;102112.16;5052494;28;20025;-48
2022/12/03 09:14:12;;;;;;;172.98;64.15;;;;;;;0.66;99.38;102115.13;5052655;28;20078;-49
2022/12/03 09:16:38;;;;;;;172.15;66.18;;;;;;;0.67;99.20;102111.81;5051528;28;20040;-47
2022/12/03 09:19:05;;;;;;;178.15;64.00;;;;;;;0.70;98.78;102106.13;5052425;28;20021;-48
2022/12/03 09:21:30;;;;;;;182.02;66.32;;;;;;;0.72;99.08;102118.19;5052330;28;20389;-45
2022/12/03 09:23:55;;;;;;;180.57;64.50;;;;;;;0.71;99.13;102116.44;5051735;28;20456;-46
2022/12/03 09:26:21;;;;;;;186.93;66.38;;;;;;;0.66;98.66;102104.97;5052537;28;20028;-48
2022/12/03 09:28:47;;;;;;;186.43;64.78;;;;;;;0.70;98.74;102117.19;5051440;28;20030;-48
2022/12/03 09:31:13;;;;;;;187.50;67.45;;;;;;;0.63;98.07;102112.28;5052507;28;20029;-47
2022/12/03 09:33:39;;;;;;;195.40;69.50;;;;;;;0.58;97.54;102122.03;5052255;28;20055;-48
2022/12/03 09:36:05;;;;;;;193.45;70.18;;;;;;;0.58;98.26;102116.97;5051528;28;20032;-47
2022/12/03 09:38:30;;;;;;;180.98;64.28;;;;;;;0.58;97.30;102106.81;5052244;28;20415;-44
2022/12/03 09:40:55;;;;;;;180.15;66.13;;;;;;;0.60;97.28;102115.44;5052302;28;20087;-47
2022/12/03 09:43:21;;;;;;;170.88;61.13;;;;;;;0.62;95.92;102113.94;5051519;28;20027;-48
2022/12/03 09:45:47;;;;;;;169.15;61.60;;;;;;;0.60;95.66;102112.91;5052250;28;20021;-45
2022/12/03 09:48:15;;;;;;;168.45;59.83;;;;;;;0.66;96.52;102112.59;5052487;28;20036;-48
2022/12/03 09:50:41;;;;;;;167.48;58.65;;;;;;;0.67;96.61;102106.72;5051270;28;20021;-48
2022/12/03 09:53:12;;;;;;;164.07;59.00;;;;;;;0.65;96.07;102104.06;5052186;28;20032;-48
2022/12/03 09:55:37;;;;;;;165.98;59.67;;;;;;;0.65;96.98;102099.00;5051815;28;20025;-47
2022/12/03 09:58:10;;;;;;;161.82;59.15;;;;;;;0.63;95.43;102103.06;5051581;28;20044;-45
2022/12/03 10:00:35;;;;;;;164.57;60.13;;;;;;;0.67;95.77;102090.63;5052033;28;20025;-48
2022/12/03 10:03:03;;;;;;;163.52;60.58;;;;;;;0.63;95.73;102089.47;5051973;28;20489;-48
2022/12/03 10:05:29;;;;;;;169.80;61.03;;;;;;;0.58;95.80;102094.13;5051332;28;20056;-45
2022/12/03 10:08:01;;;;;;;156.70;59.75;;;;;;;0.58;96.69;102098.31;5053678;28;20052;-47
2022/12/03 10:10:27;;;;;;;172.05;62.00;;;;;;;0.57;96.97;102089.81;5056090;28;20024;-44
2022/12/03 10:12:53;;;;;;;183.27;63.33;;;;;;;0.58;97.53;102086.53;5054875;28;20380;-44
2022/12/03 10:15:21;;;;;;;166.43;60.95;;;;;;;0.58;97.17;102085.63;5055719;28;20388;-47
2022/12/03 10:17:49;;;;;;;167.95;60.72;;;;;;;0.60;98.08;102079.94;5055680;28;20025;-47
2022/12/03 10:20:16;;;;;;;175.10;63.88;;;;;;;0.59;97.08;102075.59;5055255;28;20438;-46
2022/12/03 10:22:42;;;;;;;184.25;63.63;;;;;;;0.59;96.94;102075.59;5055571;28;20021;-47
2022/12/03 10:25:13;;;;;;;160.80;61.35;;;;;;;0.60;96.55;102079.94;5054915;28;20025;-48
2022/12/03 10:27:40;;;;;;;172.23;62.25;;;;;;;0.61;97.84;102071.56;5055417;28;20036;-48
2022/12/03 10:30:18;;;;;;;163.48;59.25;;;;;;;0.61;97.23;102070.69;5055583;28;20029;-44
2022/12/03 10:32:49;;;;;;;167.43;60.80;;;;;;;0.58;97.22;102068.78;5054440;28;20118;-47
2022/12/03 10:35:20;;;;;;;170.65;63.50;;;;;;;0.58;97.28;102061.16;5055622;28;20029;-48
2022/12/03 10:38:17;;;;;;;170.05;60.72;;;;;;;0.60;97.61;102064.72;5055126;28;20437;-48
2022/12/03 10:40:42;;;;;;;169.32;60.35;;;;;;;0.61;97.68;102053.81;5054341;28;20025;-47
2022/12/03 10:43:16;;;;;;;170.32;62.95;;;;;;;0.62;98.60;102052.16;5055302;28;20017;-48
2022/12/03 10:45:43;;;;;;;157.00;57.92;;;;;;;0.58;97.48;102052.63;5055042;28;20051;-47
2022/12/03 10:48:16;;;;;;;157.82;58.35;;;;;;;0.57;98.11;102044.16;5054661;28;20111;-47
2022/12/03 10:50:50;;;;;;;149.23;54.10;;;;;;;0.51;96.96;102048.66;5054895;28;20029;-47
2022/12/03 10:53:16;;;;;;;149.27;53.97;;;;;;;0.49;96.38;102050.16;5054367;28;20040;-48
2022/12/03 10:55:43;;;;;;;144.07;52.53;;;;;;;0.50;95.95;102039.25;5054626;28;20107;-48
2022/12/03 10:58:20;;;;;;;128.68;50.75;;;;;;;0.56;95.46;102039.81;5055243;28;20029;-47
2022/12/03 11:00:45;;;;;;;128.07;49.65;;;;;;;0.61;94.55;102025.91;5053760;28;20021;-48
2022/12/03 11:03:22;;;;;;;120.88;49.10;;;;;;;0.74;94.78;102024.47;5055020;28;20028;-47
2022/12/03 11:05:48;;;;;;;122.03;48.58;;;;;;;0.80;93.86;102023.34;5054734;28;20028;-48
2022/12/03 11:08:16;;;;;;;118.55;47.28;;;;;;;0.81;93.84;102019.16;5054028;28;20021;-48
2022/12/03 11:10:42;;;;;;;107.32;44.75;;;;;;;0.98;93.84;102021.53;5054689;28;20032;-49
2022/12/03 11:13:32;;;;;;;101.93;41.17;;;;;;;0.97;90.94;102021.41;5054797;28;20025;-48
2022/12/03 11:16:01;;;;;;;100.32;43.15;;;;;;;0.82;90.57;102016.75;5053901;28;20060;-47
2022/12/03 11:18:33;;;;;;;98.65;43.25;;;;;;;0.84;90.55;102023.59;5054365;28;20025;-48
2022/12/03 11:21:00;;;;;;;99.85;40.38;;;;;;;0.80;90.85;102019.91;5054470;28;20025;-46
2022/12/03 11:23:44;;;;;;;98.00;42.47;;;;;;;0.85;91.57;102017.78;5053768;28;20473;-47